Airport View

Enter AWOS ICAO identifier for current METAR.

ex. KFNL

KD55 022355Z AUTO 29019G29KT 10SM FEW100 27/04 A2984 RMK AO2

2 Jun 2020 23:51

Frequency: 118.225

Phone: 701-256-2121

Other Area AWOS: K96D - CXMD - K2C8 - CWPO

TAF AMD KDVL 022140Z 0222/0318 27014G20KT P6SM SCT090 FM030200 VRB03KT P6SM SKC